createdAt,value
2022-10-09T12:37:15.829Z,45.30
2022-10-09T12:37:49.472Z,45.80
2022-10-09T12:38:28.738Z,45.80
2022-10-09T12:39:14.475Z,45.90
2022-10-09T12:39:50.265Z,45.80
2022-10-09T12:40:25.967Z,45.90
2022-10-09T12:41:04.817Z,46.00
2022-10-09T12:41:40.237Z,46.10
2022-10-09T12:42:20.481Z,46.10
2022-10-09T12:42:55.630Z,46.00
2022-10-09T12:43:33.550Z,46.10
2022-10-09T12:44:22.981Z,46.30
2022-10-09T12:44:58.534Z,46.70
2022-10-09T12:45:32.911Z,47.20
2022-10-09T12:46:09.143Z,47.30
2022-10-09T12:46:42.673Z,47.40
2022-10-09T12:47:21.695Z,47.40
2022-10-09T12:47:57.736Z,47.40
2022-10-09T12:48:42.522Z,47.30
2022-10-09T12:49:21.491Z,47.40
2022-10-09T12:50:05.485Z,47.50
2022-10-09T12:50:40.460Z,47.50
2022-10-09T12:51:23.253Z,47.40
2022-10-09T12:52:01.139Z,47.60
2022-10-09T12:52:35.494Z,47.80
2022-10-09T12:53:17.477Z,47.90
2022-10-09T12:53:52.503Z,47.80
2022-10-09T12:54:26.326Z,48.00
2022-10-09T12:55:02.965Z,48.10
2022-10-09T12:55:42.224Z,48.00
2022-10-09T12:56:22.775Z,47.90
2022-10-09T12:57:01.892Z,47.90
2022-10-09T12:57:36.988Z,48.00
2022-10-09T12:58:30.127Z,48.20
2022-10-09T12:59:05.057Z,48.40
2022-10-09T12:59:39.696Z,48.20
2022-10-09T13:00:22.883Z,48.30
2022-10-09T13:01:06.608Z,48.40
2022-10-09T13:01:44.300Z,48.70
2022-10-09T13:02:20.252Z,48.80
2022-10-09T13:02:57.702Z,48.70
2022-10-09T13:03:36.594Z,48.60
2022-10-09T13:04:28.376Z,48.60
2022-10-09T13:05:03.990Z,49.00
2022-10-09T13:05:40.795Z,49.10
2022-10-09T13:06:19.494Z,49.20
2022-10-09T13:06:54.525Z,49.30
2022-10-09T13:07:33.321Z,49.10
2022-10-09T13:08:21.667Z,49.10
2022-10-09T13:09:02.891Z,49.60
2022-10-09T13:09:40.297Z,49.30
2022-10-09T13:10:20.085Z,49.40
2022-10-09T13:10:57.706Z,49.60
2022-10-09T13:11:35.259Z,49.70
2022-10-09T13:12:18.285Z,49.70
2022-10-09T13:12:54.238Z,49.60
2022-10-09T13:13:30.711Z,49.60
2022-10-09T13:14:05.916Z,49.60
2022-10-09T13:14:44.613Z,49.60
2022-10-09T13:15:32.260Z,49.60
2022-10-09T13:16:10.125Z,49.80
2022-10-09T13:16:48.371Z,50.00
2022-10-09T13:18:21.577Z,50.30
2022-10-09T13:19:00.828Z,50.60
2022-10-09T13:19:35.918Z,50.60
2022-10-09T13:20:27.925Z,50.60
2022-10-09T13:21:29.101Z,50.60
2022-10-09T13:22:20.793Z,50.80
2022-10-09T13:22:56.339Z,50.80
2022-10-09T13:23:33.729Z,50.60
2022-10-09T13:24:12.639Z,50.60
2022-10-09T13:24:47.424Z,50.50
2022-10-09T13:25:23.113Z,50.30
2022-10-09T13:26:01.206Z,50.20
2022-10-09T13:26:41.665Z,50.20
2022-10-09T13:27:15.694Z,50.10
2022-10-09T13:27:51.124Z,50.30
2022-10-09T13:28:25.628Z,50.50
2022-10-09T13:29:02.901Z,50.60
2022-10-09T13:29:38.787Z,50.80
2022-10-09T13:30:15.463Z,50.80
2022-10-09T13:30:51.407Z,51.00
2022-10-09T13:31:26.878Z,51.10
2022-10-09T13:32:03.315Z,51.10
2022-10-09T13:32:39.478Z,51.00
2022-10-09T13:33:15.923Z,51.40
2022-10-09T13:33:51.519Z,52.00
2022-10-09T13:34:29.636Z,52.50
2022-10-09T13:35:06.441Z,53.20
2022-10-09T13:35:41.634Z,53.90
2022-10-09T18:11:06.574Z,95.00
2022-10-09T18:11:42.213Z,95.70
2022-10-09T18:12:17.664Z,95.70
2022-10-09T18:12:52.977Z,95.70
2022-10-09T18:13:28.822Z,95.80
2022-10-09T18:14:03.838Z,95.80
2022-10-09T18:14:39.520Z,95.80
2022-10-09T18:15:13.987Z,95.80
2022-10-09T18:15:49.276Z,95.80
2022-10-09T18:16:35.700Z,95.80
2022-10-09T18:17:10.977Z,95.90
2022-10-09T18:17:49.351Z,95.90
2022-10-09T18:18:24.278Z,95.90
2022-10-09T18:19:01.682Z,95.90
2022-10-09T18:19:36.598Z,95.90
2022-10-09T18:20:11.886Z,95.90
2022-10-09T18:20:46.885Z,95.90
2022-10-09T18:21:22.680Z,95.90
2022-10-09T18:21:57.629Z,95.90
2022-10-09T18:22:33.003Z,95.90
2022-10-09T18:23:08.671Z,95.80
2022-10-09T18:23:44.001Z,95.80
2022-10-09T18:24:19.698Z,95.80
2022-10-09T18:24:55.031Z,96.00
2022-10-09T18:25:30.108Z,95.80
2022-10-09T18:26:08.854Z,95.80
2022-10-09T18:26:42.967Z,95.90
2022-10-09T18:27:21.084Z,95.90
2022-10-09T18:27:59.148Z,96.00
2022-10-09T18:28:33.500Z,96.00
2022-10-09T18:29:09.241Z,95.90
2022-10-09T18:29:43.698Z,95.90
2022-10-09T18:30:21.478Z,95.90
2022-10-09T18:30:56.837Z,96.00
2022-10-09T18:31:31.886Z,96.20
2022-10-09T18:32:07.003Z,96.00
2022-10-09T18:32:42.240Z,96.00
2022-10-09T18:33:18.463Z,96.00
2022-10-09T18:33:55.135Z,96.10
2022-10-09T18:34:28.474Z,96.10
2022-10-09T18:35:03.846Z,96.10
2022-10-09T18:35:40.304Z,96.20
2022-10-09T18:36:20.142Z,96.20
2022-10-09T18:36:59.126Z,96.20
2022-10-09T18:37:33.084Z,96.20
2022-10-09T18:38:08.159Z,96.20
2022-10-09T18:38:43.759Z,96.20
2022-10-09T18:39:18.363Z,96.20
2022-10-09T18:39:54.517Z,96.20
2022-10-09T18:40:29.911Z,96.20
2022-10-09T18:41:04.017Z,96.30
2022-10-09T18:41:39.918Z,96.30
2022-10-09T18:42:14.949Z,96.40
2022-10-09T18:42:50.726Z,96.40
2022-10-09T18:43:25.931Z,96.40
2022-10-09T18:44:01.160Z,96.40
2022-10-09T18:44:40.334Z,96.40
2022-10-09T18:45:21.133Z,96.40
2022-10-09T18:45:57.146Z,96.30
2022-10-09T18:46:37.662Z,96.30
2022-10-09T18:47:15.339Z,96.30
2022-10-09T18:47:51.332Z,96.30
2022-10-09T18:48:29.461Z,96.30
2022-10-09T18:49:03.560Z,96.40
2022-10-09T18:49:43.054Z,96.40
2022-10-09T18:50:16.798Z,96.30
2022-10-09T18:50:52.630Z,96.30
2022-10-09T18:51:28.389Z,96.30
2022-10-09T18:52:05.146Z,96.30
2022-10-09T18:52:49.483Z,96.30
2022-10-09T18:53:25.965Z,96.40
2022-10-09T18:54:05.795Z,96.40
2022-10-09T18:54:45.004Z,96.40
2022-10-09T18:55:19.314Z,96.40
2022-10-09T18:55:55.323Z,96.50
2022-10-09T18:56:50.011Z,96.50
2022-10-09T18:57:28.175Z,96.50
2022-10-09T18:58:02.334Z,96.50
2022-10-09T18:58:38.821Z,96.50
2022-10-09T18:59:21.018Z,96.50
2022-10-09T18:59:56.871Z,96.50
2022-10-09T19:00:39.013Z,96.50
2022-10-09T19:01:14.037Z,96.50
2022-10-09T19:01:49.650Z,96.50
2022-10-09T19:02:27.237Z,96.50
2022-10-09T19:03:04.850Z,96.60
2022-10-09T19:03:46.131Z,96.60
2022-10-09T19:04:24.849Z,96.60
2022-10-09T19:04:59.967Z,96.60
2022-10-09T19:05:36.148Z,96.60
2022-10-09T19:06:11.106Z,96.60
2022-10-09T19:06:46.221Z,96.60
2022-10-09T19:07:24.741Z,96.60
2022-10-09T19:07:59.105Z,96.60
2022-10-09T19:08:34.499Z,96.50
2022-10-09T19:09:13.064Z,96.50
2022-10-09T19:09:53.568Z,96.50
2022-10-09T19:10:33.457Z,96.40
2022-10-09T19:11:07.967Z,96.40
2022-10-09T19:11:43.595Z,96.40
2022-10-09T19:12:19.308Z,96.30
2022-10-09T19:12:57.326Z,96.30
2022-10-09T19:13:31.587Z,96.40
2022-10-09T19:14:08.216Z,96.40
2022-10-09T19:14:44.970Z,96.40
2022-10-09T19:15:19.961Z,96.40
2022-10-09T19:15:59.089Z,96.40
2022-10-09T19:16:34.716Z,96.40
2022-10-09T19:17:10.873Z,96.40
2022-10-09T19:17:45.078Z,96.30
2022-10-09T19:18:19.637Z,96.30
2022-10-09T19:18:57.188Z,96.30
2022-10-09T19:19:31.930Z,96.30
2022-10-09T19:20:07.664Z,96.30
2022-10-09T19:20:42.358Z,96.30
2022-10-09T19:21:17.847Z,96.20
2022-10-09T19:21:52.006Z,96.20
2022-10-09T19:22:30.504Z,96.20
2022-10-09T19:23:06.023Z,96.20
2022-10-09T19:23:41.615Z,96.10
2022-10-09T19:24:16.698Z,96.10
2022-10-09T19:24:52.614Z,96.10
2022-10-09T19:25:31.412Z,96.20
2022-10-09T19:26:07.348Z,96.10
2022-10-09T19:26:41.966Z,96.10
2022-10-09T19:27:19.754Z,96.10
2022-10-09T19:27:56.888Z,96.10
2022-10-09T19:28:33.519Z,96.00
2022-10-09T19:29:08.417Z,96.00
2022-10-09T19:29:44.363Z,96.00
2022-10-09T19:30:19.086Z,95.90
2022-10-09T19:30:53.796Z,95.90
2022-10-09T19:31:29.073Z,95.90
2022-10-09T19:32:02.969Z,95.90
2022-10-09T19:32:37.320Z,95.90
2022-10-09T19:33:12.949Z,95.90
2022-10-09T19:33:47.904Z,96.00
2022-10-09T19:34:23.398Z,96.00
2022-10-09T19:34:59.480Z,96.00
2022-10-09T19:35:34.363Z,96.00
2022-10-09T19:36:11.768Z,96.00
2022-10-09T19:36:50.545Z,96.00
2022-10-09T19:37:27.551Z,96.10
2022-10-09T19:38:09.458Z,96.10
2022-10-09T19:38:46.891Z,96.10
2022-10-09T19:39:23.628Z,96.10
2022-10-09T19:39:58.433Z,96.10
2022-10-09T19:40:35.219Z,96.10
2022-10-09T19:41:13.288Z,96.10
2022-10-09T19:41:49.487Z,96.10
2022-10-09T19:42:25.540Z,96.10
2022-10-09T19:43:00.512Z,96.10
2022-10-09T19:43:36.280Z,96.10
2022-10-09T19:44:10.378Z,96.00
2022-10-09T19:44:47.856Z,96.00
2022-10-09T19:45:21.829Z,96.00
2022-10-09T19:46:02.664Z,96.00
2022-10-09T19:46:39.302Z,96.00
2022-10-09T19:47:13.216Z,96.00
2022-10-09T19:47:51.050Z,96.00
2022-10-09T19:48:29.760Z,96.00
2022-10-09T19:49:04.636Z,96.00
2022-10-09T19:49:41.448Z,96.00
2022-10-09T19:50:16.026Z,96.10
2022-10-09T19:50:50.885Z,96.10
2022-10-09T19:51:28.002Z,96.10
2022-10-09T19:52:02.949Z,96.10
2022-10-09T19:52:38.689Z,96.10
2022-10-09T19:53:13.417Z,96.10
2022-10-09T19:53:47.494Z,96.10
2022-10-09T19:54:23.981Z,96.20
2022-10-09T19:54:58.952Z,96.20
2022-10-09T19:55:34.371Z,96.20
2022-10-09T19:56:13.247Z,96.20
2022-10-09T19:56:47.278Z,96.20
2022-10-09T19:57:23.635Z,96.20
2022-10-09T19:57:58.964Z,96.20
2022-10-09T19:58:33.309Z,96.20
2022-10-09T19:59:09.293Z,96.20
2022-10-09T19:59:42.406Z,96.20
2022-10-09T20:00:23.554Z,96.20
2022-10-09T20:01:00.873Z,96.30
2022-10-09T20:01:40.883Z,96.30
2022-10-09T20:02:14.802Z,96.30
2022-10-09T20:02:51.224Z,96.30
2022-10-09T20:03:26.415Z,96.30
2022-10-09T20:04:01.674Z,96.30
2022-10-09T20:04:36.686Z,96.30
2022-10-09T20:05:12.702Z,96.30
2022-10-09T20:05:47.041Z,96.30
2022-10-09T20:06:22.373Z,96.20
2022-10-09T20:06:56.051Z,96.20
2022-10-09T20:07:30.471Z,96.20
2022-10-09T20:08:06.244Z,96.20
2022-10-09T20:08:43.250Z,96.20
2022-10-09T20:09:18.344Z,96.20
2022-10-09T20:09:52.949Z,96.20
2022-10-09T20:10:29.153Z,96.20
2022-10-09T20:11:05.411Z,96.20
2022-10-09T20:11:40.004Z,96.20
2022-10-09T20:12:16.102Z,96.30
2022-10-09T20:12:51.060Z,96.30
2022-10-09T20:13:26.331Z,96.30
2022-10-09T20:14:02.782Z,96.30
2022-10-09T20:14:37.139Z,96.30
2022-10-09T20:15:12.816Z,96.30
2022-10-09T20:15:52.442Z,96.40
2022-10-09T20:16:30.435Z,96.40
2022-10-09T20:17:06.479Z,96.40
2022-10-09T20:17:40.822Z,96.40
2022-10-09T20:18:15.773Z,96.40
2022-10-09T20:18:51.881Z,96.50
2022-10-09T20:19:31.382Z,96.50
2022-10-09T20:20:07.317Z,96.50
2022-10-09T20:20:47.572Z,96.50
2022-10-09T20:21:23.107Z,96.50
2022-10-09T20:21:57.049Z,96.50
2022-10-09T20:22:33.001Z,96.50
2022-10-09T20:23:06.899Z,96.40
2022-10-09T20:23:40.788Z,96.40
2022-10-09T20:24:16.267Z,96.40
2022-10-09T20:24:53.720Z,96.40
2022-10-09T20:25:28.297Z,96.40
2022-10-09T20:26:04.520Z,96.40
2022-10-09T20:26:42.991Z,96.40
2022-10-09T20:27:19.181Z,96.40
2022-10-09T20:27:54.011Z,96.40
2022-10-09T20:28:29.077Z,96.50
2022-10-09T20:29:04.595Z,96.50
2022-10-09T20:29:40.485Z,96.50
2022-10-09T20:30:16.449Z,96.50
2022-10-09T20:30:57.122Z,96.40
2022-10-09T20:31:32.958Z,96.40
2022-10-09T20:32:07.367Z,96.40
2022-10-09T20:32:42.268Z,96.40
2022-10-09T20:33:19.230Z,96.40
2022-10-09T20:33:54.199Z,96.40
2022-10-09T20:34:31.994Z,96.40
2022-10-09T20:35:07.320Z,96.40
2022-10-09T20:35:46.452Z,96.30
2022-10-09T20:36:24.075Z,96.30
2022-10-09T20:36:58.419Z,96.30
2022-10-09T20:37:35.638Z,96.30
2022-10-09T20:38:08.952Z,96.30
2022-10-09T20:38:44.751Z,96.40
2022-10-09T20:39:20.290Z,96.40
2022-10-09T20:39:56.031Z,96.40
2022-10-09T20:40:33.945Z,96.50
2022-10-09T20:41:09.588Z,96.50
2022-10-09T20:41:45.965Z,96.50
2022-10-09T20:42:20.689Z,96.40
2022-10-09T20:42:55.356Z,96.40
2022-10-09T20:43:29.941Z,96.40
2022-10-09T20:44:04.727Z,96.40
2022-10-09T20:44:41.295Z,96.50
2022-10-09T20:45:15.426Z,96.50
2022-10-09T20:45:50.665Z,96.50
2022-10-09T20:46:26.913Z,96.40
2022-10-09T20:47:01.280Z,96.40
2022-10-09T20:47:34.715Z,96.40
2022-10-09T20:48:10.234Z,96.40
2022-10-09T20:48:46.058Z,96.30
2022-10-09T20:49:21.679Z,96.30
2022-10-09T20:49:56.076Z,96.30
2022-10-09T20:50:31.750Z,96.30
2022-10-09T20:51:10.517Z,96.30
2022-10-09T20:51:44.978Z,96.40
2022-10-09T20:52:20.358Z,96.40
2022-10-09T20:52:55.672Z,96.40
2022-10-09T20:53:30.045Z,96.40
2022-10-09T20:54:07.864Z,96.30
2022-10-09T20:54:42.648Z,96.40
2022-10-09T20:55:17.340Z,96.40
2022-10-09T20:55:53.725Z,96.40
2022-10-09T20:56:30.226Z,96.40
2022-10-09T20:57:04.996Z,96.50
2022-10-09T20:57:39.901Z,96.50
2022-10-09T20:58:14.319Z,96.50
2022-10-09T20:58:47.656Z,96.70
2022-10-09T20:59:24.352Z,96.50
2022-10-09T20:59:59.968Z,96.40
2022-10-09T21:00:37.627Z,96.40
2022-10-09T21:01:16.002Z,96.40
2022-10-09T21:01:50.180Z,96.40
2022-10-09T21:02:26.842Z,96.40
2022-10-09T21:03:02.685Z,96.40
2022-10-09T21:03:38.816Z,96.40
2022-10-09T21:04:15.480Z,96.50
2022-10-09T21:04:51.150Z,96.50
2022-10-09T21:05:26.211Z,96.50
2022-10-09T21:05:59.701Z,96.50
2022-10-09T21:06:34.810Z,96.50
2022-10-09T21:07:09.843Z,96.40
2022-10-09T21:07:44.230Z,96.50
2022-10-09T21:08:18.741Z,96.40
2022-10-09T21:08:54.270Z,96.40
2022-10-09T21:09:33.053Z,96.40
2022-10-09T21:10:11.702Z,96.50
2022-10-09T21:10:45.806Z,96.40
2022-10-09T21:11:20.972Z,96.40
2022-10-09T21:11:56.369Z,96.40
2022-10-09T21:12:31.337Z,96.40
2022-10-09T21:13:06.302Z,96.40
2022-10-09T21:13:43.170Z,96.40
2022-10-09T21:14:17.681Z,96.40
2022-10-09T21:14:52.863Z,96.40
2022-10-09T21:15:28.265Z,96.40
2022-10-09T21:16:06.478Z,96.30
2022-10-09T21:16:40.938Z,96.30
2022-10-09T21:17:16.971Z,96.30
2022-10-09T21:17:52.047Z,96.30
2022-10-09T21:18:27.014Z,96.40
2022-10-09T21:19:03.182Z,96.60
2022-10-09T21:19:37.471Z,96.30
2022-10-09T21:20:13.492Z,96.30
2022-10-09T21:20:49.203Z,96.30
2022-10-09T21:21:25.400Z,96.30
2022-10-09T21:22:02.180Z,96.20
2022-10-09T21:22:36.196Z,96.20
2022-10-09T21:23:12.464Z,96.30
2022-10-09T21:23:46.876Z,96.30
2022-10-09T21:24:21.680Z,96.30
2022-10-09T21:24:56.988Z,96.40
2022-10-09T21:25:31.328Z,96.40
2022-10-09T21:26:06.181Z,96.40
2022-10-09T21:26:43.449Z,96.40
2022-10-09T21:27:18.477Z,96.40
2022-10-09T21:27:53.808Z,96.50
2022-10-09T21:28:27.886Z,96.40
2022-10-09T21:29:02.212Z,96.40
2022-10-09T21:29:36.988Z,96.40
2022-10-09T21:30:14.165Z,96.30
2022-10-09T21:30:49.820Z,96.30
2022-10-09T21:31:28.681Z,96.30
2022-10-09T21:32:03.803Z,96.30
2022-10-09T21:32:40.330Z,96.30
2022-10-09T21:33:15.289Z,96.30
2022-10-09T21:33:49.232Z,96.30
2022-10-09T21:34:25.332Z,96.30
2022-10-09T21:35:00.209Z,96.30
2022-10-09T21:35:40.868Z,96.30
2022-10-09T21:36:24.267Z,96.40
2022-10-09T21:37:55.531Z,96.40
2022-10-09T21:38:30.756Z,96.40
2022-10-09T21:39:08.086Z,96.30
2022-10-09T21:39:42.728Z,96.30
2022-10-09T21:40:17.482Z,96.30
2022-10-09T21:40:52.626Z,96.30
2022-10-09T21:41:28.256Z,96.30
2022-10-09T21:42:04.387Z,96.40
2022-10-09T21:42:39.478Z,96.40
2022-10-09T21:43:14.107Z,96.40
2022-10-09T21:43:49.728Z,96.40
2022-10-09T21:44:23.576Z,96.40
2022-10-09T21:44:58.537Z,96.40
2022-10-09T21:45:33.668Z,96.30
2022-10-09T21:46:08.708Z,96.20
2022-10-09T21:46:43.391Z,96.20
2022-10-09T21:47:19.336Z,96.20
2022-10-09T21:47:54.813Z,96.20
2022-10-09T21:48:30.986Z,96.10
2022-10-09T21:49:07.786Z,96.00
2022-10-09T21:49:42.444Z,96.00
2022-10-09T21:50:18.704Z,96.00
2022-10-09T21:50:52.076Z,95.90
2022-10-09T21:51:27.670Z,95.90
2022-10-09T21:52:04.301Z,95.80
2022-10-09T21:52:38.218Z,95.80
2022-10-09T21:53:14.264Z,95.80
2022-10-09T21:53:50.084Z,95.70
2022-10-09T21:54:24.697Z,95.80
2022-10-09T21:54:58.390Z,95.70
2022-10-09T21:55:33.060Z,95.70
2022-10-09T21:56:07.273Z,95.70
2022-10-09T21:56:41.035Z,95.60
2022-10-09T21:57:17.018Z,95.60
2022-10-09T21:57:50.615Z,95.50
2022-10-09T21:58:26.147Z,95.50
2022-10-09T21:59:01.071Z,95.50
2022-10-09T21:59:34.888Z,95.40
2022-10-09T22:00:11.481Z,95.40
2022-10-09T22:00:57.030Z,95.40
2022-10-09T22:01:31.991Z,95.30
2022-10-09T22:02:06.438Z,95.30
2022-10-09T22:02:41.683Z,95.30
2022-10-09T22:03:16.592Z,95.30
2022-10-09T22:03:51.741Z,95.30
2022-10-09T22:04:25.955Z,95.30
2022-10-09T22:05:01.067Z,95.30
2022-10-09T22:05:36.172Z,95.20
2022-10-09T22:06:16.329Z,95.20
2022-10-09T22:06:52.870Z,95.20
2022-10-09T22:07:31.162Z,95.30
2022-10-09T22:08:04.662Z,95.30
2022-10-09T22:08:38.690Z,95.60
2022-10-09T22:09:15.656Z,95.30
2022-10-09T22:09:50.623Z,95.40
2022-10-09T22:10:23.827Z,95.40
2022-10-09T22:10:59.965Z,95.40
2022-10-09T22:11:33.795Z,95.40
2022-10-09T22:12:08.208Z,95.40
2022-10-09T22:12:42.952Z,95.40
2022-10-09T22:13:17.895Z,95.50
2022-10-09T22:13:51.671Z,95.50
2022-10-09T22:14:26.406Z,95.40
2022-10-09T22:15:01.971Z,95.40
2022-10-09T22:15:39.787Z,95.40
2022-10-09T22:16:17.320Z,95.40
2022-10-09T22:16:51.573Z,95.40
2022-10-09T22:17:26.539Z,95.40
2022-10-09T22:18:01.172Z,95.40
2022-10-09T22:18:35.700Z,95.30
2022-10-09T22:19:10.708Z,95.30
2022-10-09T22:19:46.044Z,95.20
2022-10-09T22:20:21.192Z,95.20
2022-10-09T22:20:55.440Z,95.20
2022-10-09T22:21:30.714Z,95.10
2022-10-09T22:22:05.084Z,95.00
2022-10-09T22:22:40.331Z,95.00
2022-10-09T22:23:15.843Z,95.00
2022-10-09T22:23:50.537Z,95.00
2022-10-09T22:24:29.103Z,95.00
2022-10-09T22:25:03.847Z,94.90
2022-10-09T22:25:38.731Z,94.90
2022-10-09T22:26:17.776Z,94.90
2022-10-09T22:26:52.103Z,94.90
2022-10-09T22:27:26.859Z,94.80
2022-10-09T22:28:02.719Z,94.80
2022-10-09T22:28:37.437Z,94.70
2022-10-09T22:29:12.362Z,94.70
2022-10-09T22:29:47.264Z,94.70
2022-10-09T22:45:49.067Z,94.70
2022-10-09T22:46:25.122Z,94.60
2022-10-09T22:47:01.361Z,94.70
2022-10-09T22:47:35.841Z,94.60
2022-10-09T22:48:10.553Z,94.70
2022-10-09T22:48:45.989Z,94.70
2022-10-09T22:49:20.835Z,94.70
2022-10-09T22:49:54.701Z,94.70
2022-10-09T22:50:30.235Z,94.70
2022-10-09T22:51:06.998Z,94.80
2022-10-09T22:51:40.732Z,94.70
2022-10-09T22:52:16.423Z,94.70
2022-10-09T22:52:51.604Z,94.80
2022-10-09T22:53:27.644Z,94.80
2022-10-09T22:54:03.429Z,94.80
2022-10-09T22:54:38.872Z,94.90
2022-10-09T22:55:12.978Z,94.80
2022-10-09T22:55:48.759Z,94.90
2022-10-09T22:56:24.539Z,95.10
2022-10-09T22:56:58.911Z,94.90
2022-10-09T22:57:34.674Z,95.00
2022-10-09T22:58:10.197Z,95.00
2022-10-09T22:58:43.648Z,95.00
2022-10-09T22:59:20.350Z,95.00
2022-10-09T22:59:55.292Z,95.10
2022-10-09T23:00:31.925Z,95.10
2022-10-09T23:01:09.766Z,95.10
2022-10-09T23:01:46.043Z,95.10
2022-10-09T23:02:21.296Z,95.10
2022-10-09T23:02:57.594Z,95.10
2022-10-09T23:03:30.941Z,95.10
2022-10-09T23:04:07.701Z,95.20
2022-10-09T23:04:42.710Z,95.20
2022-10-09T23:05:17.175Z,95.20
2022-10-09T23:05:52.023Z,95.20
2022-10-09T23:06:26.518Z,95.20
2022-10-09T23:07:00.884Z,95.20
2022-10-09T23:07:35.064Z,95.20
2022-10-09T23:08:09.975Z,95.20
2022-10-09T23:08:47.564Z,95.20
2022-10-09T23:09:25.273Z,95.20
2022-10-09T23:09:59.952Z,95.20
2022-10-09T23:10:37.256Z,95.20
2022-10-09T23:11:12.967Z,95.20
2022-10-09T23:11:47.372Z,95.20
2022-10-09T23:12:21.010Z,95.20
2022-10-09T23:12:56.475Z,95.20
2022-10-09T23:13:30.357Z,95.20
2022-10-09T23:14:04.744Z,95.20
2022-10-09T23:14:41.355Z,95.10
2022-10-09T23:15:16.539Z,95.20
2022-10-09T23:15:51.076Z,95.20
2022-10-09T23:16:26.837Z,95.20
2022-10-09T23:17:01.481Z,95.20
2022-10-09T23:17:35.655Z,95.20
2022-10-09T23:18:11.166Z,95.20
2022-10-09T23:18:44.599Z,95.20
2022-10-09T23:19:19.734Z,95.20
2022-10-09T23:19:54.690Z,95.20
2022-10-09T23:20:28.027Z,95.20
2022-10-09T23:21:05.112Z,95.20
2022-10-09T23:21:41.157Z,95.20
2022-10-09T23:22:16.321Z,95.20
2022-10-09T23:22:51.065Z,95.20
2022-10-09T23:23:25.250Z,95.20
2022-10-09T23:24:02.768Z,95.30
2022-10-09T23:24:37.313Z,95.20
2022-10-09T23:25:12.036Z,95.20
2022-10-09T23:25:47.280Z,95.20
2022-10-09T23:26:22.318Z,95.10
2022-10-09T23:26:57.640Z,95.10
2022-10-09T23:27:31.904Z,95.20
2022-10-09T23:28:06.797Z,95.10
2022-10-09T23:28:42.441Z,95.10
2022-10-09T23:29:19.111Z,95.10
2022-10-09T23:29:53.842Z,95.00
2022-10-09T23:30:29.923Z,95.00
2022-10-09T23:31:05.006Z,95.00
2022-10-09T23:31:39.166Z,95.00
2022-10-09T23:32:15.156Z,95.00
2022-10-09T23:32:49.526Z,94.90
2022-10-09T23:33:24.755Z,94.90
2022-10-09T23:34:00.790Z,94.80
2022-10-09T23:34:35.815Z,94.70
2022-10-09T23:35:11.852Z,94.70
2022-10-09T23:35:46.413Z,94.70
2022-10-09T23:36:22.274Z,94.70
2022-10-09T23:36:58.334Z,94.90
2022-10-09T23:37:33.292Z,94.70
2022-10-09T23:38:07.349Z,94.70
2022-10-09T23:38:41.768Z,94.70
2022-10-09T23:39:16.572Z,94.70
2022-10-09T23:39:50.293Z,94.70
2022-10-09T23:40:25.785Z,94.70
2022-10-09T23:41:00.411Z,94.70
2022-10-09T23:41:34.814Z,94.80
2022-10-09T23:42:10.200Z,94.80
2022-10-09T23:42:44.757Z,94.80
2022-10-09T23:43:20.462Z,94.80
2022-10-09T23:43:55.581Z,94.80
2022-10-09T23:44:29.363Z,94.80
2022-10-09T23:45:04.085Z,94.70
2022-10-09T23:45:43.309Z,94.70
2022-10-09T23:46:19.042Z,94.70
2022-10-09T23:46:54.485Z,94.70
2022-10-09T23:47:29.258Z,94.80
2022-10-09T23:48:04.003Z,94.70
2022-10-09T23:48:38.719Z,94.70
2022-10-09T23:49:13.564Z,94.70
2022-10-09T23:49:47.888Z,94.70
2022-10-09T23:50:22.892Z,94.70
2022-10-09T23:50:57.072Z,94.70
2022-10-09T23:51:31.301Z,94.70
2022-10-09T23:52:05.880Z,94.70
2022-10-09T23:52:40.285Z,94.70
2022-10-09T23:53:14.696Z,94.60
2022-10-09T23:53:50.345Z,94.60
2022-10-09T23:54:25.311Z,94.60
2022-10-09T23:55:00.259Z,94.60
2022-10-09T23:55:35.631Z,94.60
2022-10-09T23:56:22.753Z,94.60
2022-10-09T23:56:58.877Z,94.60
2022-10-09T23:57:35.482Z,94.70
2022-10-09T23:58:09.446Z,94.70
2022-10-09T23:58:45.055Z,94.70
2022-10-09T23:59:19.550Z,94.70
2022-10-09T23:59:53.854Z,94.60
